• Join FlightAware (Why Join?)
  • Login
  • US Flag 
04:08PM EDT


 

Airport Tracker/Info


-or-


 

Live Flight TrackerFlight Track Log ✈ N552XJ ✈ 20-Apr-2013 ✈ KORD - KOPF

Flight Track Log - Related Links

Times and Time Zones

All times are in EDT time to prevent confusion due to time zone crossing. See the N552XJ flight status page for this flight to view local times or setup timezone preferences in your user account.

Time Position Orientation Groundspeed Altitude Reporting Facility
EDT Latitude Longitude Course Direction KTS MPH feet Rate Location/Type
03:22PM 41.9333 -87.9000 180° South 186 214 2,300  Level Chicago TRACON
03:23PM 41.8833 -87.9000 180° South 251 289 4,600 2,100 Climbing Chicago TRACON
03:24PM 41.8131 -87.8889 173° South 246 283 6,500 3,000 Climbing Chicago Center
03:25PM 41.7308 -87.8864 179° South 295 339 11,000 4,380 Climbing Chicago Center
03:26PM 41.6322 -87.8844 179° South 350 403 15,500 3,960 Climbing Chicago Center
03:27PM 41.5272 -87.8806 178° South 372 428 19,200 3,360 Climbing Chicago Center
03:28PM 41.2221 -87.4632 180° South  Level Estimated
03:28PM 41.4158 -87.8781 179° South 391 450 22,500  Level Chicago Center
03:29PM 41.3036 -87.8881 184° South 397 457 25,400 2,760 Climbing Chicago Center
03:30PM 41.1617 -87.8897 181° South 423 487 28,200 2,400 Climbing Chicago Center
03:31PM 41.0400 -87.8858 179° South 434 499 30,400 2,100 Climbing Chicago Center
03:32PM 40.9183 -87.8819 179° South 438 504 32,600 2,040 Climbing Chicago Center
03:33PM 40.7947 -87.8617 173° South 448 516 34,600 1,800 Climbing Chicago Center
03:34PM 40.6717 -87.8281 168° South 453 521 36,400 1,800 Climbing Chicago Center
03:35PM 40.5506 -87.7967 169° South 449 517 38,400 1,680 Climbing Chicago Center
03:37PM 40.4339 -87.7658 169° South 435 501 39,900 1,200 Climbing Chicago Center
03:37PM 40.3703 -87.7486 168° South 436 502 40,200 480 Climbing Indianapolis Center
03:38PM 40.2494 -87.7175 169° South 437 503 40,700 360 Climbing Indianapolis Center
03:39PM 40.1239 -87.6847 169° South 451 519 41,000 120 Climbing Indianapolis Center
03:40PM 39.9986 -87.6503 168° South 457 526 41,000  Level Indianapolis Center
03:41PM 39.8736 -87.6164 168° South 458 527 41,000  Level Indianapolis Center
03:42PM 39.7236 -87.5778 169° South 456 525 41,000  Level Indianapolis Center
03:43PM 39.6003 -87.5461 169° South 451 519 41,000  Level Indianapolis Center
03:44PM 39.4764 -87.5139 169° South 453 521 41,000  Level Indianapolis Center
03:45PM 39.3519 -87.4808 168° South 455 524 41,000  Level Indianapolis Center
03:46PM 39.2275 -87.4497 169° South 455 524 41,000  Level Indianapolis Center
03:47PM 39.1031 -87.4169 168° South 455 524 41,000  Level Indianapolis Center
03:48PM 38.9797 -87.3858 169° South 452 520 41,000  Level Indianapolis Center
03:49PM 38.8556 -87.3536 169° South 453 521 41,000  Level Indianapolis Center
03:50PM 38.7314 -87.3228 169° South 453 521 41,000  Level Indianapolis Center
03:51PM 38.6075 -87.2900 168° South 454 522 41,000  Level Indianapolis Center
03:52PM 38.4597 -87.2531 169° South 453 521 41,000  Level Indianapolis Center
03:53PM 38.3378 -87.2219 169° South 453 521 41,000  Level Indianapolis Center
03:54PM 38.2139 -87.1953 170° South 449 517 41,000  Level Indianapolis Center
03:55PM 38.0947 -87.1619 168° South 456 525 41,000  Level Indianapolis Center
03:56PM 37.9719 -87.1317 169° South 453 521 41,000  Level Indianapolis Center
03:57PM 37.8497 -87.1008 169° South 449 517 41,000  Level Indianapolis Center
03:58PM 37.7028 -87.0639 169° South 447 514 41,000  Level Indianapolis Center
04:00PM 37.5664 -87.0344 170° South 458 527 41,000  Level Memphis Center
04:01PM 37.4428 -87.0003 168° South 458 527 41,000  Level Memphis Center
04:02PM 37.3211 -86.9717 169° South 458 527 41,000  Level Memphis Center
04:03PM 37.1953 -86.9406 169° South 453 521 41,000  Level Memphis Center
04:04PM 37.0714 -86.9094 169° South 453 521 41,000  Level Memphis Center
04:05PM 36.9436 -86.8786 169° South 453 521 41,000  Level Memphis Center
04:06PM 36.8364 -86.8522 169° South 453 521 41,000  Level Memphis Center
04:07PM 36.7086 -86.8217 169° South 453 521 41,000  Level Memphis Center
04:08PM 36.5889 -86.7906 168° South 448 516 41,000  Level Memphis Center
04:09PM 36.4669 -86.7572 168° South 448 516 41,000  Level Memphis Center
04:10PM 36.3392 -86.7347 172° South 459 528 41,000  Level Memphis Center
04:11PM 36.2047 -86.6994 168° South 459 528 41,000  Level Memphis Center
04:12PM 36.0883 -86.6406 158° South 454 522 41,000  Level Memphis Center
04:13PM 35.9831 -86.5425 143° Southeast 463 533 41,000  Level Memphis Center
04:15PM 35.7861 -86.3606 143° Southeast 505 581 41,000  Level Atlanta Center
04:16PM 35.6856 -86.2683 143° Southeast 475 547 41,000  Level Atlanta Center
04:17PM 35.5808 -86.1733 144° Southeast 470 541 41,000  Level Atlanta Center
04:18PM 35.4803 -86.0842 144° Southeast 464 534 41,000  Level Atlanta Center
04:19PM 35.3794 -85.9875 142° Southeast 464 534 41,000  Level Atlanta Center
04:20PM 35.2664 -85.8856 144° Southeast 464 534 41,000  Level Atlanta Center
04:21PM 35.1756 -85.8047 144° Southeast 464 534 41,000  Level Atlanta Center
04:22PM 35.0725 -85.7136 144° Southeast 459 528 41,000  Level Atlanta Center
04:23PM 34.9694 -85.6178 143° Southeast 459 528 41,000  Level Atlanta Center
04:24PM 34.8664 -85.5272 144° Southeast 459 528 41,000  Level Atlanta Center
04:25PM 34.7631 -85.4369 144° Southeast 464 534 41,000  Level Atlanta Center
04:26PM 34.6639 -85.3444 142° Southeast 464 534 41,000  Level Atlanta Center
04:27PM 34.5606 -85.2544 144° Southeast 459 528 41,000  Level Atlanta Center
04:28PM 34.4508 -85.1522 142° Southeast 459 528 41,000  Level Atlanta Center
04:29PM 34.3494 -85.0628 144° Southeast 452 520 41,000  Level Atlanta Center
04:30PM 34.2436 -84.9736 145° Southeast 457 526 41,000  Level Atlanta Center
04:31PM 34.1419 -84.8847 144° Southeast 464 534 41,000  Level Atlanta Center
04:32PM 34.0467 -84.8008 144° Southeast 464 534 41,000  Level Atlanta Center
04:33PM 33.9406 -84.7150 146° Southeast 469 540 41,000  Level Atlanta Center
04:34PM 33.8303 -84.6514 154° Southeast 456 525 41,000  Level Atlanta Center
04:35PM 33.7178 -84.5983 159° South 437 503 41,000  Level Atlanta Center
04:36PM 33.6053 -84.5475 159° South 437 503 41,000  Level Atlanta Center
04:37PM 33.4761 -84.4897 160° South 442 509 41,000  Level Atlanta Center
04:38PM 33.3636 -84.4367 158° South 447 514 41,000  Level Atlanta Center
04:39PM 33.2469 -84.3842 159° South 442 509 41,000  Level Atlanta Center
04:40PM 33.1322 -84.3317 159° South 448 516 41,000  Level Atlanta Center
04:41PM 33.0175 -84.2792 159° South 453 521 41,000  Level Atlanta Center
04:42PM 32.9008 -84.2244 159° South 447 514 41,000  Level Atlanta Center
04:43PM 32.7839 -84.1747 160° South 447 514 41,000  Level Atlanta Center
04:44PM 32.6692 -84.1203 158° South 447 514 41,000  Level Atlanta Center
04:45PM 32.5544 -84.0683 159° South 447 514 41,000  Level Atlanta Center
04:46PM 32.4375 -84.0167 160° South 447 514 41,000  Level Atlanta Center
04:47PM 32.3206 -83.9628 159° South 447 514 41,000  Level Atlanta Center
04:48PM 32.2036 -83.9089 159° South 447 514 41,000  Level Atlanta Center
04:49PM 32.0481 -83.8386 159° South 461 531 41,000  Level Jacksonville Center
04:50PM 31.9317 -83.7861 159° South 456 525 41,000  Level Jacksonville Center
04:51PM 31.8067 -83.7286 159° South 438 504 41,000  Level Jacksonville Center
04:52PM 31.6944 -83.6789 159° South 438 504 41,000  Level Jacksonville Center
04:53PM 31.5714 -83.6242 159° South 445 512 41,000  Level Jacksonville Center
04:54PM 31.4589 -83.5769 160° South 450 518 41,000  Level Jacksonville Center
04:55PM 31.3486 -83.5275 159° South 444 511 41,000  Level Jacksonville Center
04:56PM 31.2361 -83.4781 159° South 438 504 41,000  Level Jacksonville Center
04:57PM 31.1278 -83.4339 161° South 433 498 41,000  Level Jacksonville Center
04:58PM 31.0153 -83.3822 159° South 427 491 41,000  Level Jacksonville Center
04:59PM 30.9047 -83.3333 159° South 427 491 41,000  Level Jacksonville Center
05:00PM 30.7983 -83.2844 158° South 422 486 41,000  Level Jacksonville Center
05:01PM 30.6858 -83.2308 158° South 422 486 41,000  Level Jacksonville Center
05:02PM 30.5753 -83.1750 156° South 427 491 41,000  Level Jacksonville Center
05:03PM 30.4647 -83.1192 156° South 433 498 41,000  Level Jacksonville Center
05:04PM 30.3500 -83.0611 156° South 439 505 41,000  Level Jacksonville Center
05:05PM 30.2372 -83.0056 157° South 439 505 41,000  Level Jacksonville Center
05:06PM 30.1244 -82.9503 157° South 439 505 41,000  Level Jacksonville Center
05:07PM 30.0244 -82.8972 155° Southeast 439 505 41,000  Level Jacksonville Center
05:08PM 29.9053 -82.8494 161° South 445 512 41,000  Level Jacksonville Center
05:09PM 29.7925 -82.7919 156° South 445 512 41,000 -60 Level Jacksonville Center
05:10PM 29.6797 -82.7372 157° South 445 512 40,900  Descending Jacksonville Center
05:11PM 29.5692 -82.6825 157° South 440 506 41,000  Climbing Jacksonville Center
05:12PM 29.4542 -82.6208 155° Southeast 440 506 41,000  Level Jacksonville Center
05:13PM 29.3411 -82.5661 157° South 440 506 41,000  Level Jacksonville Center
05:14PM 29.2283 -82.5119 157° South 440 506 41,000  Level Jacksonville Center
05:15PM 29.1133 -82.4647 160° South 440 506 41,000  Level Jacksonville Center
05:16PM 28.9986 -82.4700 182° South 421 484 41,000  Level Jacksonville Center
05:17PM 28.8861 -82.4989 193° South 410 472 41,000  Level Jacksonville Center
05:18PM 28.7775 -82.5278 193° South 405 466 41,000  Level Jacksonville Center
05:19PM 28.6586 -82.5614 194° South 405 466 41,000  Level Jacksonville Center
05:20PM 28.5481 -82.5925 194° South 410 472 41,000  Level Jacksonville Center
05:21PM 28.4375 -82.6186 192° South 410 472 41,000  Level Jacksonville Center
05:22PM 28.3269 -82.6497 194° South 410 472 41,000  Level Jacksonville Center
05:23PM 28.2269 -82.6736 192° South 415 478 41,000  Level Jacksonville Center
05:24PM 28.1164 -82.7019 193° South 415 478 41,000  Level Jacksonville Center
05:24PM 28.0664 -82.7147 193° South 413 475 41,000  Level Miami Center
05:25PM 27.9617 -82.7306 188° South 399 459 41,000  Level Miami Center
05:26PM 27.8481 -82.7011 167° South 410 472 41,000  Level Miami Center
05:27PM 27.7144 -82.6544 163° South 435 501 41,000  Level Miami Center
05:28PM 27.5950 -82.6108 162° South 445 512 41,000  Level Miami Center
05:29PM 27.4903 -82.5706 161° South 445 512 41,000  Level Miami Center
05:30PM 27.3711 -82.5250 161° South 453 521 41,000  Level Miami Center
05:31PM 27.2517 -82.4817 162° South 453 521 41,000  Level Miami Center
05:32PM 27.1386 -82.4389 161° South 442 509 41,000  Level Miami Center
05:33PM 27.0192 -82.3983 163° South 442 509 41,000  Level Miami Center
05:34PM 26.8894 -82.3478 161° South 442 509 41,000  Level Miami Center
05:35PM 26.7806 -82.3078 162° South 451 519 41,000  Level Miami Center
05:36PM 26.6631 -82.2675 163° South 451 519 41,000 -180 Level Miami Center
05:37PM 26.5506 -82.1997 152° Southeast 451 519 40,700 -1,020 Descending Miami Center
05:38PM 26.4542 -82.0981 137° Southeast 456 525 39,000 -1,980 Descending Miami Center
05:39PM 26.3556 -81.9917 136° Southeast 480 552 36,800 -2,100 Descending Miami Center
05:40PM 26.2592 -81.8878 136° Southeast 485 558 34,900 -1,980 Descending Miami Center
05:41PM 26.1731 -81.7803 132° Southeast 478 550 32,900 -2,100 Descending Miami Center
05:42PM 26.1128 -81.6411 116° Southeast 478 550 30,700 -2,280 Descending Miami Center
05:43PM 26.0525 -81.5025 116° Southeast 487 560 28,400 -2,340 Descending Miami Center
05:44PM 25.9375 -81.4472 157° South 444 511 26,100 -2,400 Descending Miami Center
05:45PM 25.8192 -81.4242 170° South 421 484 23,700 -2,040 Descending Miami Center
05:46PM 25.7378 -81.4881 215° Southwest 350 403 22,100 -1,620 Descending Miami Center
05:47PM 25.6456 -81.4983 186° South 341 392 20,500 -1,740 Descending Miami Center
05:48PM 25.5522 -81.4808 170° South 335 386 18,700 -1,800 Descending Miami Center
05:49PM 25.4650 -81.4614 169° South 329 379 17,000 -1,800 Descending Miami Center
05:50PM 25.4278 -81.3794 117° Southeast 288 331 15,200 -1,980 Descending Miami Center
05:51PM 25.4494 -81.2836 76° East 251 289 13,100 -1,740 Descending Miami Center
05:52PM 25.4753 -81.1950 72° East 270 311 11,800 -1,140 Descending Miami Center
05:53PM 25.4942 -81.1150 75° East 298 343 11,100 -720 Descending Miami Center
05:54PM 25.5197 -81.0308 71° East 302 348 10,600 -600 Descending Miami Center
05:54PM 25.5264 -81.0172 62° Northeast 280 322 10,400 -540 Descending Miami Center
05:55PM 25.5428 -80.9511 75° East 256 295 10,100 -540 Descending Miami Center
05:55PM 25.5472 -80.9419 62° Northeast 273 314 9,900 -1,020 Descending Miami Center
05:56PM 25.5678 -80.8758 71° East 255 293 9,100 -1,140 Descending Miami Center
05:57PM 25.6131 -80.8267 44° Northeast 246 283 7,900 -1,140 Descending Miami Center
05:58PM 25.6783 -80.8036 18° North 233 268 6,800 -1,140 Descending Miami Center
05:59PM 25.7417 -80.7847 15° North 224 258 5,600 -1,380 Descending Miami Center
06:00PM 25.7986 -80.7567 24° Northeast 227 261 4,100 -1,380 Descending Miami Center
06:01PM 25.8539 -80.7261 26° Northeast 216 249 2,800 -1,020 Descending Miami Center
06:02PM 25.8950 -80.6628 54° Northeast 207 238 2,000 -360 Descending Miami Center
06:03PM 25.8947 -80.6006 90° East 229 264 2,100  Climbing Miami Center
06:04PM 25.8986 -80.5289 87° East 223 257 2,000 -60 Descending Miami Center
06:06PM 25.9036 -80.4022 87° East 187 215 2,000 -300 Level Miami Center
06:07PM 25.9072 -80.3492 86° East 131 151 1,100 -780 Descending Miami Center
06:08PM 25.9100 -80.3122 85° East 116 133 500 -600 Descending Miami Center
06:10PM 25.9074 -80.2782 86° East  Level Estimated
06:17PM 25.9074 -80.2782 86° East  Level Estimated